Time;durP1;ratioP1;P1;durP2;ratioP2;P2;SDS_P1;SDS_P2;PMS_P1;PMS_P2;Temp;Humidity;BMP_temperature;BMP_pressure;BME280_temperature;BME280_humidity;BME280_pressure;Samples;Min_cycle;Max_cycle;Signal;HPM_P1;HPM_P2
2023/03/01 00:01:10;;;;;;;201.80;185.68;;;;;;;-3.61;85.71;103340.41;4925425;29;20051;-73
2023/03/01 00:03:36;;;;;;;209.45;193.65;;;;;;;-3.66;85.61;103336.47;4926855;29;20046;-74
2023/03/01 00:06:04;;;;;;;203.60;187.27;;;;;;;-3.60;85.68;103328.16;4938164;28;20079;-73
2023/03/01 00:08:30;;;;;;;203.40;187.30;;;;;;;-3.54;86.45;103342.59;4910894;29;20405;-75
2023/03/01 00:11:12;;;;;;;211.95;195.98;;;;;;;-3.54;85.66;103332.09;4909917;29;20043;-73
2023/03/01 00:13:39;;;;;;;215.13;199.00;;;;;;;-3.41;85.72;103327.63;4925447;29;20852;-74
2023/03/01 00:16:07;;;;;;;205.38;188.93;;;;;;;-3.34;86.79;103327.06;4923632;29;20040;-72
2023/03/01 00:18:36;;;;;;;202.65;186.15;;;;;;;-3.16;86.03;103324.84;4927805;29;20122;-73
2023/03/01 00:21:02;;;;;;;214.43;197.95;;;;;;;-3.03;86.06;103317.72;4926986;29;20059;-75
2023/03/01 00:23:28;;;;;;;203.95;187.20;;;;;;;-3.11;86.08;103320.09;4925361;29;20098;-74
2023/03/01 00:25:54;;;;;;;212.98;196.95;;;;;;;-3.35;86.35;103327.19;4923640;29;20047;-73
2023/03/01 00:28:20;;;;;;;210.32;194.43;;;;;;;-3.54;86.09;103324.25;4941842;28;20094;-74
2023/03/01 00:30:46;;;;;;;214.88;198.15;;;;;;;-3.66;86.27;103326.84;4940693;28;20386;-74
2023/03/01 00:33:12;;;;;;;202.77;186.68;;;;;;;-3.71;86.39;103321.09;4929382;28;20035;-72
2023/03/01 00:35:39;;;;;;;211.95;195.70;;;;;;;-3.81;86.14;103327.94;4927138;29;20417;-74
2023/03/01 00:38:05;;;;;;;203.68;187.40;;;;;;;-3.82;86.78;103328.91;4912053;29;20481;-75
2023/03/01 00:40:33;;;;;;;204.30;187.70;;;;;;;-3.80;86.25;103324.38;4912436;29;20564;-75
2023/03/01 00:43:01;;;;;;;216.30;199.77;;;;;;;-3.89;86.17;103323.25;4910564;29;20584;-74
2023/03/01 00:45:27;;;;;;;215.88;199.63;;;;;;;-3.95;86.49;103328.13;4927176;29;20039;-74
2023/03/01 00:47:54;;;;;;;211.90;195.85;;;;;;;-3.95;86.10;103328.13;4924876;29;20040;-74
2023/03/01 00:50:20;;;;;;;205.40;188.32;;;;;;;-3.95;86.05;103320.25;4928778;29;20042;-76
2023/03/01 00:52:46;;;;;;;210.93;195.05;;;;;;;-3.96;85.82;103315.97;4927733;29;20044;-72
2023/03/01 00:55:12;;;;;;;211.35;195.35;;;;;;;-4.01;86.15;103318.06;4927919;29;20061;-74
2023/03/01 00:57:38;;;;;;;204.43;187.68;;;;;;;-3.98;85.95;103318.72;4942988;29;20072;-73
2023/03/01 01:00:05;;;;;;;213.38;196.82;;;;;;;-4.07;85.80;103319.34;4926175;29;20054;-74
2023/03/01 01:02:36;;;;;;;212.00;195.75;;;;;;;-4.09;85.95;103323.03;4944451;28;20031;-73
2023/03/01 01:05:02;;;;;;;210.90;195.10;;;;;;;-4.12;85.70;103311.03;4926522;29;20039;-74
2023/03/01 01:07:30;;;;;;;214.93;198.55;;;;;;;-4.06;85.23;103312.34;4926950;29;20036;-75
2023/03/01 01:09:57;;;;;;;205.82;189.05;;;;;;;-4.02;86.40;103312.00;4927573;29;20632;-73
2023/03/01 01:12:23;;;;;;;214.95;198.63;;;;;;;-3.87;86.70;103307.44;4947354;28;20082;-72
2023/03/01 01:14:48;;;;;;;213.98;197.70;;;;;;;-3.49;87.53;103301.16;4932923;29;20063;-72
2023/03/01 01:17:14;;;;;;;214.00;197.68;;;;;;;-3.59;87.25;103288.78;4915629;29;20584;-73
2023/03/01 01:19:39;;;;;;;208.65;191.55;;;;;;;-3.59;85.80;103294.00;4947764;28;20040;-73
2023/03/01 01:22:07;;;;;;;215.02;198.35;;;;;;;-3.69;86.89;103298.25;4944213;28;20038;-74
2023/03/01 01:24:33;;;;;;;216.05;199.43;;;;;;;-3.59;87.06;103303.63;4914751;29;20484;-74
2023/03/01 01:26:58;;;;;;;203.95;187.50;;;;;;;-3.76;86.32;103302.25;4929643;29;20505;-72
2023/03/01 01:29:24;;;;;;;213.73;197.70;;;;;;;-3.52;86.28;103296.16;4933275;29;20062;-73
2023/03/01 01:31:49;;;;;;;211.93;195.70;;;;;;;-3.44;86.06;103294.66;4916823;29;20040;-75
2023/03/01 01:34:19;;;;;;;211.65;195.05;;;;;;;-3.53;85.71;103289.25;4930747;29;20158;-75
2023/03/01 01:36:49;;;;;;;211.05;195.15;;;;;;;-3.64;85.69;103290.06;4913492;29;20035;-74
2023/03/01 01:39:15;;;;;;;213.55;197.00;;;;;;;-3.81;85.94;103293.91;4941857;28;20054;-74
2023/03/01 01:41:42;;;;;;;212.52;196.32;;;;;;;-3.95;86.28;103296.69;4942897;28;20043;-75
2023/03/01 01:44:17;;;;;;;213.73;197.52;;;;;;;-4.06;86.24;103284.41;4924889;29;20520;-76
2023/03/01 01:47:05;;;;;;;204.65;188.02;;;;;;;-4.13;86.30;103284.00;4927252;29;20473;-75
2023/03/01 01:49:39;;;;;;;201.57;184.88;;;;;;;-3.83;86.68;103285.34;4917815;29;20051;-71
2023/03/01 01:52:13;;;;;;;211.02;195.02;;;;;;;-3.68;86.78;103281.56;4923876;29;20692;-72
2023/03/01 01:54:49;;;;;;;211.38;195.38;;;;;;;-3.65;87.60;103275.28;4926268;29;20783;-73
2023/03/01 01:57:25;;;;;;;203.45;187.05;;;;;;;-3.48;86.11;103272.22;4923859;29;20139;-74
2023/03/01 01:59:58;;;;;;;209.80;194.13;;;;;;;-3.34;85.08;103266.78;4928655;29;20117;-73
2023/03/01 02:02:23;;;;;;;206.00;189.23;;;;;;;-3.20;84.81;103260.50;4924696;29;20090;-74
2023/03/01 02:04:58;;;;;;;203.02;186.35;;;;;;;-3.13;84.86;103256.44;4931022;29;20157;-72
2023/03/01 02:07:25;;;;;;;200.98;185.13;;;;;;;-2.98;85.18;103266.69;4916396;29;20055;-74
2023/03/01 02:09:54;;;;;;;202.52;186.40;;;;;;;-3.00;84.67;103261.59;4933392;28;20050;-75
2023/03/01 02:12:25;;;;;;;210.63;194.82;;;;;;;-2.89;84.44;103256.34;4925711;29;20145;-74
2023/03/01 02:14:51;;;;;;;209.63;193.63;;;;;;;-2.89;84.40;103258.13;4912874;29;20134;-73
2023/03/01 02:17:19;;;;;;;200.30;184.32;;;;;;;-2.86;84.57;103257.88;4929235;29;20517;-73
2023/03/01 02:20:26;;;;;;;208.85;192.77;;;;;;;-2.74;84.06;103264.81;4933552;29;20046;-73
2023/03/01 02:22:53;;;;;;;200.93;184.75;;;;;;;-2.71;84.15;103259.31;4928866;29;20482;-74
2023/03/01 02:25:40;;;;;;;201.55;185.55;;;;;;;-2.57;83.87;103250.38;4930643;29;20051;-74
2023/03/01 02:28:20;;;;;;;202.70;186.48;;;;;;;-2.59;84.01;103260.13;4928342;29;20457;-71
2023/03/01 02:33:38;;;;;;;210.10;194.13;;;;;;;-2.48;84.12;103244.38;4929367;29;20048;-73
2023/03/01 02:36:09;;;;;;;202.15;185.48;;;;;;;-2.49;83.78;103243.56;4914756;29;20071;-74
2023/03/01 02:38:34;;;;;;;210.60;194.25;;;;;;;-2.49;83.61;103254.06;4945689;28;20134;-75
2023/03/01 02:41:03;;;;;;;203.80;187.60;;;;;;;-2.45;83.83;103244.13;4913888;29;20126;-75
2023/03/01 02:43:32;;;;;;;207.32;191.27;;;;;;;-2.42;83.97;103250.94;4932154;29;20368;-76
2023/03/01 02:46:04;;;;;;;202.85;186.82;;;;;;;-2.46;84.57;103247.72;4932801;29;20035;-76
2023/03/01 02:48:40;;;;;;;208.75;192.80;;;;;;;-2.50;84.56;103247.13;4931110;29;20047;-74
2023/03/01 02:51:17;;;;;;;209.90;193.63;;;;;;;-2.43;84.40;103244.03;4930505;29;20044;-74
2023/03/01 02:53:59;;;;;;;202.68;186.48;;;;;;;-2.56;84.94;103246.78;4946220;29;20138;-73
2023/03/01 02:56:25;;;;;;;198.38;182.60;;;;;;;-2.59;85.16;103242.59;4932263;29;20039;-73
2023/03/01 02:58:52;;;;;;;203.40;187.18;;;;;;;-2.78;85.04;103247.63;4929615;29;20524;-74
2023/03/01 03:01:20;;;;;;;206.65;191.27;;;;;;;-2.84;85.65;103245.50;4929656;29;20639;-74
2023/03/01 03:03:45;;;;;;;209.10;193.40;;;;;;;-2.87;85.63;103245.72;4945767;29;20043;-73
2023/03/01 03:06:12;;;;;;;201.75;185.75;;;;;;;-2.92;85.63;103238.22;4931609;28;20062;-74
2023/03/01 03:08:38;;;;;;;210.77;195.18;;;;;;;-3.06;85.99;103238.47;4932837;29;20043;-73
2023/03/01 03:11:04;;;;;;;199.52;183.80;;;;;;;-3.16;85.74;103237.50;4929230;29;20048;-76
2023/03/01 03:13:30;;;;;;;204.70;189.20;;;;;;;-3.23;85.89;103233.69;4945949;28;20050;-73
2023/03/01 03:15:56;;;;;;;198.30;182.57;;;;;;;-3.31;85.49;103234.28;4929837;29;20040;-73
2023/03/01 03:18:25;;;;;;;207.27;191.68;;;;;;;-3.29;85.39;103229.75;4933597;29;20150;-73
2023/03/01 03:20:53;;;;;;;200.18;184.13;;;;;;;-3.36;85.34;103225.94;4926637;29;20094;-73
2023/03/01 03:23:20;;;;;;;203.70;187.95;;;;;;;-3.25;85.15;103225.97;4912581;29;20067;-73
2023/03/01 03:25:50;;;;;;;200.10;184.07;;;;;;;-3.22;84.01;103224.88;4929902;29;20047;-75
2023/03/01 03:28:19;;;;;;;210.48;194.82;;;;;;;-3.23;84.33;103225.84;4944439;29;20046;-74
2023/03/01 03:30:46;;;;;;;206.18;190.85;;;;;;;-3.26;84.45;103226.88;4926509;29;20111;-75
2023/03/01 03:33:13;;;;;;;199.25;183.80;;;;;;;-3.30;84.53;103226.31;4929099;29;20662;-73
2023/03/01 03:35:42;;;;;;;207.30;191.77;;;;;;;-3.25;84.33;103215.47;4929123;29;20495;-73
2023/03/01 03:38:15;;;;;;;200.23;184.55;;;;;;;-3.27;84.39;103222.59;4943947;28;20042;-73
2023/03/01 03:41:03;;;;;;;205.35;189.73;;;;;;;-3.22;84.55;103217.00;4930562;29;20090;-74
2023/03/01 03:43:31;;;;;;;207.75;192.18;;;;;;;-3.18;84.53;103203.56;4930774;29;20483;-73
2023/03/01 03:45:57;;;;;;;204.82;189.70;;;;;;;-3.12;84.31;103210.09;4909573;29;20393;-73
2023/03/01 03:48:24;;;;;;;197.10;181.30;;;;;;;-3.04;84.18;103219.06;4928815;29;20046;-73
2023/03/01 03:50:55;;;;;;;197.77;182.43;;;;;;;-3.06;84.74;103213.06;4927230;29;20481;-73
2023/03/01 03:53:23;;;;;;;198.38;182.38;;;;;;;-3.02;84.57;103209.28;4942703;28;20039;-73
2023/03/01 03:55:49;;;;;;;197.38;181.82;;;;;;;-2.98;84.47;103209.88;4927196;29;20080;-73
2023/03/01 03:58:16;;;;;;;203.57;188.57;;;;;;;-2.89;84.05;103210.94;4929388;29;20055;-73
2023/03/01 04:00:44;;;;;;;199.15;183.90;;;;;;;-2.82;83.95;103201.63;4924437;29;20043;-73
2023/03/01 04:03:12;;;;;;;203.05;187.40;;;;;;;-2.71;83.73;103212.09;4944385;28;20027;-73
2023/03/01 04:05:39;;;;;;;202.27;186.90;;;;;;;-2.63;83.38;103211.50;4912209;29;20046;-74
2023/03/01 04:08:09;;;;;;;199.75;184.55;;;;;;;-2.56;83.03;103208.25;4929501;29;20492;-74
2023/03/01 04:10:44;;;;;;;204.07;188.80;;;;;;;-2.47;82.77;103207.50;4932676;29;20039;-74
2023/03/01 04:13:13;;;;;;;205.77;190.57;;;;;;;-2.37;82.72;103207.63;4928194;29;20040;-73
2023/03/01 04:15:39;;;;;;;197.00;182.32;;;;;;;-2.31;82.68;103201.03;4948539;28;20060;-74
2023/03/01 04:18:06;;;;;;;197.80;182.70;;;;;;;-2.24;82.04;103199.56;4930412;29;20035;-73
2023/03/01 04:20:34;;;;;;;203.27;188.32;;;;;;;-2.23;82.27;103196.00;4946461;28;20036;-73
2023/03/01 04:23:18;;;;;;;198.10;182.90;;;;;;;-2.18;82.45;103188.56;4912189;29;20031;-73
2023/03/01 04:25:58;;;;;;;200.70;185.40;;;;;;;-2.17;82.47;103194.66;4930297;29;20055;-73
2023/03/01 04:28:30;;;;;;;199.55;184.32;;;;;;;-2.14;82.46;103202.28;4928616;29;20464;-73
2023/03/01 04:30:58;;;;;;;199.65;184.10;;;;;;;-2.16;82.39;103191.91;4930493;29;20224;-74
2023/03/01 04:33:25;;;;;;;204.43;189.23;;;;;;;-2.13;82.51;103196.91;4930409;29;20130;-74
2023/03/01 04:35:51;;;;;;;201.27;186.07;;;;;;;-2.06;82.25;103198.06;4927749;29;20042;-73
2023/03/01 04:38:19;;;;;;;198.82;183.85;;;;;;;-2.05;82.35;103199.72;4925859;29;20058;-74
2023/03/01 04:40:44;;;;;;;204.23;188.93;;;;;;;-2.06;82.69;103191.97;4909509;29;20036;-73
2023/03/01 04:43:14;;;;;;;204.20;188.55;;;;;;;-2.06;82.07;103195.44;4912104;29;20219;-74
2023/03/01 04:45:40;;;;;;;199.98;184.77;;;;;;;-2.00;82.10;103191.47;4929623;29;20067;-73
2023/03/01 04:48:06;;;;;;;202.00;186.82;;;;;;;-2.00;82.18;103191.47;4925935;29;20074;-74
2023/03/01 04:50:32;;;;;;;203.18;187.77;;;;;;;-2.05;82.17;103194.47;4911482;29;20462;-74
2023/03/01 04:52:58;;;;;;;197.65;182.70;;;;;;;-1.98;82.37;103194.81;4929050;28;20090;-73
2023/03/01 04:55:26;;;;;;;199.77;184.55;;;;;;;-2.00;82.28;103197.56;4929280;29;20040;-74
2023/03/01 04:57:52;;;;;;;199.40;184.18;;;;;;;-2.08;82.52;103184.25;4928013;29;20118;-74
2023/03/01 05:00:21;;;;;;;199.82;184.52;;;;;;;-1.99;82.50;103186.09;4942708;28;20047;-74
2023/03/01 05:02:46;;;;;;;204.38;188.98;;;;;;;-1.93;82.34;103187.38;4929266;29;20027;-74
2023/03/01 05:05:12;;;;;;;199.30;184.32;;;;;;;-1.90;82.76;103178.41;4930005;29;20043;-74
2023/03/01 05:07:38;;;;;;;199.38;184.38;;;;;;;-1.89;82.29;103182.72;4928866;29;20129;-74
2023/03/01 05:10:04;;;;;;;201.43;186.05;;;;;;;-1.90;82.94;103176.59;4931190;29;20031;-74
2023/03/01 05:12:30;;;;;;;200.70;185.30;;;;;;;-1.90;83.20;103179.25;4947371;28;20046;-74
2023/03/01 05:14:55;;;;;;;197.18;182.05;;;;;;;-1.83;82.80;103179.56;4926484;29;20044;-76
2023/03/01 05:17:21;;;;;;;201.60;186.30;;;;;;;-1.82;82.73;103168.13;4927868;29;20039;-73
2023/03/01 05:19:49;;;;;;;199.93;184.77;;;;;;;-1.77;82.46;103171.16;4928676;29;20450;-74
2023/03/01 05:22:16;;;;;;;193.93;179.13;;;;;;;-1.72;82.39;103174.25;4928541;29;20035;-73
2023/03/01 05:24:42;;;;;;;199.68;184.43;;;;;;;-1.77;82.55;103189.56;4928540;29;20043;-74
2023/03/01 05:27:07;;;;;;;195.52;180.75;;;;;;;-1.66;82.07;103181.63;4927994;29;20069;-73
2023/03/01 05:29:34;;;;;;;201.20;185.88;;;;;;;-1.69;82.54;103179.25;4945393;29;20044;-74
2023/03/01 05:32:02;;;;;;;199.68;184.38;;;;;;;-1.64;82.47;103182.31;4930434;29;20043;-74
2023/03/01 05:34:34;;;;;;;199.85;184.63;;;;;;;-1.54;82.55;103177.97;4910680;29;20055;-74
2023/03/01 05:37:00;;;;;;;200.45;185.15;;;;;;;-1.60;82.89;103188.97;4929301;29;20043;-74
2023/03/01 05:39:27;;;;;;;197.13;182.15;;;;;;;-1.64;83.20;103171.81;4908237;29;20629;-74
2023/03/01 05:41:55;;;;;;;201.65;186.35;;;;;;;-1.59;83.13;103174.06;4924738;29;20119;-74
2023/03/01 05:44:21;;;;;;;203.07;187.05;;;;;;;-1.56;82.77;103171.97;4926811;29;20039;-75
2023/03/01 05:46:47;;;;;;;198.23;183.13;;;;;;;-1.56;82.95;103169.34;4928653;29;20812;-74
2023/03/01 05:49:13;;;;;;;201.68;186.15;;;;;;;-1.46;82.52;103169.41;4927572;29;20039;-74
2023/03/01 05:51:43;;;;;;;202.20;186.73;;;;;;;-1.44;83.19;103163.06;4945673;28;20118;-74
2023/03/01 05:54:09;;;;;;;204.05;188.52;;;;;;;-1.31;82.85;103157.59;4929890;29;20044;-74
2023/03/01 05:56:36;;;;;;;200.38;185.10;;;;;;;-1.23;82.74;103162.19;4930821;29;20035;-74
2023/03/01 05:59:04;;;;;;;198.35;182.77;;;;;;;-1.34;83.18;103168.38;4926029;29;20055;-74
2023/03/01 06:01:32;;;;;;;196.02;180.95;;;;;;;-1.28;83.46;103169.66;4927641;29;20035;-74
2023/03/01 06:03:57;;;;;;;200.10;184.82;;;;;;;-1.24;83.17;103173.66;4928388;29;20063;-74
2023/03/01 06:06:23;;;;;;;201.90;186.23;;;;;;;-1.20;82.96;103164.56;4927602;29;20151;-75
2023/03/01 06:08:53;;;;;;;197.05;182.05;;;;;;;-1.21;82.54;103168.16;4912606;29;20031;-74
2023/03/01 06:11:19;;;;;;;200.52;185.02;;;;;;;-1.18;81.53;103157.34;4928515;29;20046;-74
2023/03/01 06:13:45;;;;;;;196.82;181.65;;;;;;;-1.32;82.32;103155.09;4926754;28;20050;-74
2023/03/01 06:16:12;;;;;;;208.52;192.68;;;;;;;-1.42;81.82;103161.16;4923542;29;20123;-74
2023/03/01 06:18:38;;;;;;;197.75;182.35;;;;;;;-1.38;82.43;103156.44;4915318;29;20054;-74
2023/03/01 06:21:05;;;;;;;197.43;181.85;;;;;;;-1.38;82.45;103161.72;4927067;29;20044;-75
2023/03/01 06:23:31;;;;;;;199.35;183.75;;;;;;;-1.34;82.53;103157.03;4910027;29;20478;-74
2023/03/01 06:25:57;;;;;;;202.95;187.05;;;;;;;-1.24;82.31;103148.19;4927967;29;20047;-75
2023/03/01 06:28:23;;;;;;;199.93;184.10;;;;;;;-1.25;82.08;103151.81;4928996;29;20450;-74
2023/03/01 06:30:50;;;;;;;199.75;184.40;;;;;;;-1.21;82.13;103152.38;4926998;29;20043;-74
2023/03/01 06:33:15;;;;;;;202.48;186.52;;;;;;;-1.16;81.98;103158.06;4929362;29;20047;-75
2023/03/01 06:35:41;;;;;;;198.32;182.77;;;;;;;-1.15;82.03;103155.31;4934175;29;20112;-74
2023/03/01 06:38:07;;;;;;;200.73;184.95;;;;;;;-0.99;81.68;103152.16;4909699;29;20035;-74
2023/03/01 06:40:35;;;;;;;199.55;183.73;;;;;;;-1.01;81.54;103154.09;4931836;29;20117;-74
2023/03/01 06:43:01;;;;;;;201.68;186.57;;;;;;;-1.03;82.13;103157.81;4937011;29;20039;-74
2023/03/01 06:45:27;;;;;;;204.07;188.70;;;;;;;-0.99;82.26;103160.06;4947362;28;20118;-74
2023/03/01 06:48:00;;;;;;;194.85;179.88;;;;;;;-0.94;82.49;103160.50;4930069;29;20043;-74
2023/03/01 06:50:26;;;;;;;198.00;182.60;;;;;;;-0.88;82.36;103170.47;4936414;29;20745;-74
2023/03/01 06:52:55;;;;;;;199.85;184.50;;;;;;;-0.84;82.33;103165.78;4956290;28;20067;-73
2023/03/01 06:55:21;;;;;;;202.40;186.93;;;;;;;-0.80;81.96;103161.09;4937116;29;20488;-73
2023/03/01 06:57:47;;;;;;;198.68;183.38;;;;;;;-0.79;82.18;103150.41;4912107;29;20119;-73
2023/03/01 07:00:13;;;;;;;205.40;189.60;;;;;;;-0.82;82.35;103159.38;4930908;29;20040;-73
2023/03/01 07:02:39;;;;;;;200.15;184.63;;;;;;;-0.78;82.28;103170.50;4931425;29;20054;-75
2023/03/01 07:05:04;;;;;;;199.77;184.35;;;;;;;-0.72;82.10;103161.22;4932184;29;20482;-73
2023/03/01 07:07:30;;;;;;;204.38;187.65;;;;;;;-0.65;81.19;103167.63;4932057;29;20548;-75
2023/03/01 07:09:56;;;;;;;198.65;183.07;;;;;;;-0.60;81.47;103155.72;4949665;28;20035;-73
2023/03/01 07:12:21;;;;;;;201.88;186.55;;;;;;;-0.52;80.81;103157.66;4949283;28;20114;-74
2023/03/01 07:14:49;;;;;;;201.07;185.48;;;;;;;-0.41;81.23;103152.25;4937120;29;20119;-74
2023/03/01 07:17:15;;;;;;;201.60;186.35;;;;;;;-0.38;80.72;103149.34;4942409;29;20049;-73
2023/03/01 07:19:40;;;;;;;199.70;183.85;;;;;;;-0.34;80.62;103153.38;4937197;29;20028;-75
2023/03/01 07:22:07;;;;;;;200.75;184.95;;;;;;;-0.23;81.55;103154.19;4935802;29;20036;-74
2023/03/01 07:24:33;;;;;;;196.38;180.90;;;;;;;-0.07;80.91;103139.50;4937104;29;20721;-73
2023/03/01 07:26:59;;;;;;;199.77;183.82;;;;;;;-0.03;80.12;103140.88;4920222;29;20051;-74
2023/03/01 07:29:25;;;;;;;205.60;189.82;;;;;;;-0.04;80.31;103146.28;4945755;28;20449;-73
2023/03/01 07:31:51;;;;;;;202.02;186.20;;;;;;;-0.04;80.91;103139.22;4929594;29;20494;-74
2023/03/01 07:34:16;;;;;;;209.57;193.55;;;;;;;-0.02;80.12;103142.53;4929229;29;20043;-74
2023/03/01 07:36:45;;;;;;;206.93;191.30;;;;;;;0.05;79.41;103148.06;4929350;29;20043;-74
2023/03/01 07:39:11;;;;;;;210.32;194.32;;;;;;;0.13;78.87;103137.63;4931125;29;20031;-74
2023/03/01 07:41:37;;;;;;;203.30;187.55;;;;;;;0.18;78.42;103134.59;4933415;29;20490;-74
2023/03/01 07:44:03;;;;;;;197.32;181.32;;;;;;;0.20;78.05;103130.84;4944649;28;20051;-73
2023/03/01 07:46:28;;;;;;;212.07;195.65;;;;;;;0.31;78.47;103134.28;4929655;29;20134;-74
2023/03/01 07:48:54;;;;;;;207.68;191.30;;;;;;;0.34;77.51;103141.88;4928989;29;20051;-73
2023/03/01 07:51:19;;;;;;;208.88;192.45;;;;;;;0.37;78.35;103146.91;4944715;28;20046;-74
2023/03/01 07:53:47;;;;;;;209.90;193.30;;;;;;;0.36;77.19;103150.50;4929969;29;20506;-74
2023/03/01 07:56:17;;;;;;;190.15;174.13;;;;;;;0.55;75.84;103153.09;4946981;28;20039;-74
2023/03/01 07:58:43;;;;;;;209.65;193.07;;;;;;;0.62;75.61;103146.25;4932847;29;20490;-74
2023/03/01 08:01:15;;;;;;;210.13;193.15;;;;;;;0.70;75.63;103158.72;4914908;29;20055;-74
2023/03/01 08:03:42;;;;;;;193.23;176.05;;;;;;;0.81;74.99;103146.19;4933667;29;20070;-73
2023/03/01 08:06:09;;;;;;;211.15;194.23;;;;;;;0.86;74.76;103147.53;4929749;29;20110;-73
2023/03/01 08:08:35;;;;;;;207.23;190.55;;;;;;;0.83;74.64;103159.22;4914966;29;20035;-73
2023/03/01 08:11:03;;;;;;;205.27;189.45;;;;;;;0.89;75.08;103163.09;4930047;29;20062;-72
2023/03/01 08:13:29;;;;;;;194.15;178.13;;;;;;;0.87;75.75;103162.38;4911715;29;20078;-74
2023/03/01 08:15:54;;;;;;;193.90;177.73;;;;;;;1.02;74.58;103158.28;4913310;29;20186;-74
2023/03/01 08:18:21;;;;;;;202.25;187.07;;;;;;;1.20;73.73;103164.41;4944698;28;20059;-73
2023/03/01 08:20:47;;;;;;;205.55;190.32;;;;;;;1.30;72.86;103161.75;4931172;29;20042;-74
2023/03/01 08:23:13;;;;;;;202.68;187.32;;;;;;;1.19;73.30;103161.94;4947818;28;20500;-73
2023/03/01 08:25:38;;;;;;;202.27;187.00;;;;;;;1.18;73.93;103161.09;4926702;29;20047;-75
2023/03/01 08:28:05;;;;;;;193.07;176.88;;;;;;;1.28;73.94;103159.22;4928166;29;20031;-74
2023/03/01 08:30:31;;;;;;;207.60;191.32;;;;;;;1.41;72.96;103164.16;4916444;29;20035;-73
2023/03/01 08:32:57;;;;;;;207.50;191.85;;;;;;;1.42;72.42;103154.41;4927001;29;20039;-72
2023/03/01 08:35:23;;;;;;;192.13;175.45;;;;;;;1.64;72.45;103156.63;4933398;29;20067;-72
2023/03/01 08:37:48;;;;;;;204.30;188.55;;;;;;;1.84;71.02;103152.84;4928894;29;20036;-73
2023/03/01 08:40:14;;;;;;;204.70;188.82;;;;;;;1.82;69.44;103146.03;4932337;29;20032;-73
2023/03/01 08:42:44;;;;;;;206.82;190.70;;;;;;;1.95;69.10;103145.63;4931184;29;20036;-74
2023/03/01 08:45:11;;;;;;;210.27;193.10;;;;;;;1.99;69.74;103139.91;4928296;29;20837;-74
2023/03/01 08:47:36;;;;;;;197.82;180.90;;;;;;;2.12;68.89;103137.69;4940383;28;20054;-72
2023/03/01 08:50:03;;;;;;;192.13;175.95;;;;;;;2.26;68.22;103143.38;4926746;29;20044;-72
2023/03/01 08:52:31;;;;;;;199.93;182.82;;;;;;;2.28;66.83;103139.59;4924034;29;20050;-74
2023/03/01 08:54:57;;;;;;;205.10;187.70;;;;;;;2.45;66.54;103143.19;4923406;29;20055;-73
2023/03/01 08:57:23;;;;;;;209.50;192.32;;;;;;;2.67;65.65;103141.78;4926581;29;20036;-74
2023/03/01 08:59:48;;;;;;;209.38;192.88;;;;;;;2.70;65.22;103142.28;4928374;29;20405;-72
2023/03/01 09:02:17;;;;;;;202.10;185.65;;;;;;;2.89;65.88;103133.28;4942205;28;20086;-74
2023/03/01 09:04:43;;;;;;;198.68;181.38;;;;;;;2.90;64.76;103148.16;4940906;28;20043;-73
2023/03/01 09:07:09;;;;;;;194.88;178.48;;;;;;;3.06;65.48;103143.94;4927266;29;20059;-74
2023/03/01 09:09:35;;;;;;;210.82;194.40;;;;;;;3.19;64.91;103145.13;4929100;29;20040;-73
2023/03/01 09:12:02;;;;;;;211.20;194.32;;;;;;;3.27;63.63;103154.91;4930324;29;20091;-74
2023/03/01 09:14:28;;;;;;;196.82;180.02;;;;;;;3.68;62.26;103137.25;4930992;29;20102;-74
2023/03/01 09:16:54;;;;;;;208.95;191.50;;;;;;;3.56;61.75;103135.91;4931494;29;20114;-74
2023/03/01 09:19:19;;;;;;;196.35;180.20;;;;;;;3.48;62.15;103134.09;4924762;29;20134;-74
2023/03/01 09:21:52;;;;;;;196.35;178.98;;;;;;;3.84;62.24;103139.06;4927628;29;20123;-74
2023/03/01 09:24:20;;;;;;;195.68;178.48;;;;;;;4.14;60.90;103134.09;4928607;29;20035;-73
2023/03/01 09:26:46;;;;;;;193.50;176.80;;;;;;;4.08;60.95;103132.91;4924019;29;20040;-74
2023/03/01 09:29:12;;;;;;;212.50;196.10;;;;;;;4.14;61.75;103136.72;4927007;29;20759;-74
2023/03/01 09:31:38;;;;;;;196.00;178.05;;;;;;;4.09;61.70;103132.75;4928372;29;20078;-73
2023/03/01 09:34:04;;;;;;;194.27;176.98;;;;;;;4.47;60.89;103137.47;4927877;29;20063;-74
2023/03/01 09:36:30;;;;;;;208.43;191.57;;;;;;;4.34;61.74;103133.53;4929284;29;20046;-74
2023/03/01 09:38:58;;;;;;;209.77;193.23;;;;;;;4.50;60.10;103137.97;4930224;29;20466;-74
2023/03/01 09:41:49;;;;;;;207.98;191.70;;;;;;;4.21;60.59;103132.41;4925130;29;20039;-74
2023/03/01 09:44:41;;;;;;;210.93;194.52;;;;;;;4.56;59.77;103131.97;4926517;29;20051;-74
2023/03/01 09:47:18;;;;;;;214.00;196.77;;;;;;;4.17;60.45;103139.03;4928595;29;20035;-74
2023/03/01 09:49:52;;;;;;;210.68;194.15;;;;;;;4.25;60.64;103128.41;4944086;28;20032;-73
2023/03/01 09:52:29;;;;;;;196.13;179.23;;;;;;;4.45;60.37;103132.34;4928541;29;20039;-73
2023/03/01 09:54:56;;;;;;;196.63;179.77;;;;;;;4.73;60.09;103129.25;4901870;29;20087;-74
2023/03/01 09:57:32;;;;;;;210.80;194.65;;;;;;;4.54;59.55;103136.63;4928544;29;20039;-74
2023/03/01 10:00:13;;;;;;;196.32;179.10;;;;;;;4.76;58.98;103131.56;4943636;28;20178;-74
2023/03/01 10:02:47;;;;;;;209.32;193.00;;;;;;;4.92;58.98;103136.81;4931764;29;20054;-73
2023/03/01 10:05:36;;;;;;;209.88;193.70;;;;;;;4.78;59.47;103129.56;4919588;29;20043;-73
2023/03/01 10:08:06;;;;;;;197.10;180.80;;;;;;;4.99;59.75;103136.94;4938390;29;20091;-73
2023/03/01 10:10:37;;;;;;;210.77;194.50;;;;;;;4.98;59.22;103136.09;4907362;29;20040;-73
2023/03/01 10:13:15;;;;;;;210.65;195.02;;;;;;;5.14;59.47;103130.69;4928306;28;20350;-73
2023/03/01 10:15:55;;;;;;;210.43;194.57;;;;;;;5.12;60.61;103127.41;4937351;29;20059;-73
2023/03/01 10:18:25;;;;;;;209.50;193.80;;;;;;;5.22;60.38;103137.81;4924337;29;20059;-73
2023/03/01 10:21:01;;;;;;;209.98;194.25;;;;;;;5.44;58.59;103128.19;4940568;28;20457;-73
2023/03/01 10:23:31;;;;;;;210.80;194.98;;;;;;;5.37;59.51;103138.72;4911207;29;20039;-73
2023/03/01 10:26:05;;;;;;;208.95;193.27;;;;;;;5.71;58.68;103135.63;4931957;29;20043;-73
2023/03/01 10:28:44;;;;;;;212.57;196.35;;;;;;;5.83;58.38;103129.91;4931402;29;20130;-73
2023/03/01 10:31:18;;;;;;;206.80;191.32;;;;;;;6.19;57.64;103125.56;4927728;29;20039;-73
2023/03/01 10:33:44;;;;;;;208.63;193.18;;;;;;;6.38;57.81;103134.03;4932180;29;20055;-72
2023/03/01 10:36:09;;;;;;;192.77;177.35;;;;;;;6.44;56.88;103122.66;4930921;29;20062;-73
2023/03/01 10:39:18;;;;;;;205.25;189.98;;;;;;;6.09;57.18;103125.00;4946653;29;20043;-72
2023/03/01 10:42:04;;;;;;;205.50;190.15;;;;;;;5.86;57.94;103118.88;4916075;29;20039;-73
2023/03/01 10:44:37;;;;;;;193.65;177.95;;;;;;;5.87;58.67;103115.22;4930083;29;20159;-74
2023/03/01 10:47:03;;;;;;;193.50;177.63;;;;;;;6.05;58.36;103106.94;4945141;29;20036;-72
2023/03/01 10:49:29;;;;;;;204.00;188.30;;;;;;;6.13;57.75;103113.00;4930838;29;20039;-72
2023/03/01 10:51:55;;;;;;;200.55;185.90;;;;;;;6.22;57.76;103113.72;4945684;28;20036;-75
2023/03/01 10:54:29;;;;;;;199.80;185.25;;;;;;;6.16;57.96;103112.63;4929775;29;20040;-75
2023/03/01 10:56:57;;;;;;;198.18;183.82;;;;;;;6.02;58.55;103118.75;4934337;28;20409;-73
2023/03/01 10:59:34;;;;;;;198.18;183.68;;;;;;;6.03;59.30;103112.44;4930667;29;20035;-74
2023/03/01 11:02:15;;;;;;;190.90;175.38;;;;;;;6.25;58.08;103113.38;4929510;29;20032;-74
2023/03/01 11:05:00;;;;;;;187.65;172.50;;;;;;;6.06;58.73;103111.25;4932145;29;20039;-73
2023/03/01 11:07:27;;;;;;;201.82;186.88;;;;;;;6.05;59.68;103113.09;4947358;28;20766;-75